createdAt,value
2017-12-17T00:01:34.114Z,101127.08
2017-12-17T00:03:59.880Z,101130.46
2017-12-17T00:06:25.624Z,101135.00
2017-12-17T00:08:51.427Z,101137.88
2017-12-17T00:11:17.167Z,101139.63
2017-12-17T00:13:42.932Z,101134.06
2017-12-17T00:16:08.733Z,101129.73
2017-12-17T00:18:34.503Z,101132.64
2017-12-17T00:21:00.252Z,101134.09
2017-12-17T00:23:26.016Z,101131.92
2017-12-17T00:25:51.770Z,101136.69
2017-12-17T00:28:17.515Z,101146.91
2017-12-17T00:30:43.292Z,101151.34
2017-12-17T00:33:09.034Z,101148.73
2017-12-17T00:35:34.855Z,101145.86
2017-12-17T00:38:03.990Z,101148.70
2017-12-17T00:40:29.748Z,101154.36
2017-12-17T00:42:55.500Z,101158.15
2017-12-17T00:45:21.273Z,101147.67
2017-12-17T00:47:47.021Z,101164.41
2017-12-17T00:50:12.784Z,101171.45
2017-12-17T00:52:38.524Z,101172.37
2017-12-17T00:55:05.131Z,101176.16
2017-12-17T00:57:30.943Z,101176.13
2017-12-17T00:59:56.939Z,101178.46
2017-12-17T01:02:22.685Z,101186.25
2017-12-17T01:04:48.432Z,101161.46
2017-12-17T01:07:14.207Z,101186.68
2017-12-17T01:09:39.972Z,101190.98
2017-12-17T01:12:05.736Z,101195.06
2017-12-17T01:14:31.494Z,101200.98
2017-12-17T01:16:57.271Z,101205.62
2017-12-17T01:19:23.075Z,101210.64
2017-12-17T01:21:48.828Z,101216.66
2017-12-17T01:24:14.564Z,101202.83
2017-12-17T01:26:40.372Z,101207.91
2017-12-17T01:29:06.127Z,101207.09
2017-12-17T01:31:32.447Z,101205.18
2017-12-17T01:34:05.103Z,101216.80
2017-12-17T01:36:30.871Z,101220.59
2017-12-17T01:38:56.612Z,101219.97
2017-12-17T01:41:23.150Z,101221.41
2017-12-17T01:43:48.899Z,101223.61
2017-12-17T01:46:14.667Z,101228.33
2017-12-17T01:48:40.436Z,101224.81
2017-12-17T01:51:06.183Z,101222.17
2017-12-17T01:53:31.955Z,101236.20
2017-12-17T01:55:58.025Z,101237.06
2017-12-17T01:58:23.779Z,101241.47
2017-12-17T02:00:49.526Z,101241.25
2017-12-17T02:03:15.307Z,101247.82
2017-12-17T02:05:41.057Z,101244.71
2017-12-17T02:08:06.822Z,101253.95
2017-12-17T02:10:32.571Z,101256.86
2017-12-17T02:12:58.337Z,101258.73
2017-12-17T02:15:24.087Z,101266.04
2017-12-17T02:17:49.843Z,101272.23
2017-12-17T02:20:15.586Z,101263.15
2017-12-17T02:22:41.340Z,101281.05
2017-12-17T02:25:07.130Z,101267.53
2017-12-17T02:27:32.886Z,101266.29
2017-12-17T02:29:58.667Z,101269.25
2017-12-17T02:32:24.423Z,101270.04
2017-12-17T02:34:50.220Z,101282.29
2017-12-17T02:37:15.971Z,101285.63
2017-12-17T02:39:41.740Z,101293.97
2017-12-17T02:42:07.517Z,101294.32
2017-12-17T02:44:33.606Z,101303.71
2017-12-17T02:46:59.407Z,101304.47
2017-12-17T02:49:25.180Z,101304.37
2017-12-17T02:51:50.932Z,101309.89
2017-12-17T02:54:16.700Z,101311.63
2017-12-17T02:56:42.464Z,101319.51
2017-12-17T02:59:08.232Z,101328.85
2017-12-17T03:01:33.995Z,101326.91
2017-12-17T03:03:59.827Z,101341.45
2017-12-17T03:06:25.587Z,101348.58
2017-12-17T03:08:51.343Z,101342.45
2017-12-17T03:11:17.862Z,101344.50
2017-12-17T03:13:43.616Z,101349.33
2017-12-17T03:16:09.385Z,101350.72
2017-12-17T03:18:35.186Z,101353.02
2017-12-17T03:21:00.971Z,101361.61
2017-12-17T03:23:27.300Z,101365.17
2017-12-17T03:25:53.072Z,101369.97
2017-12-17T03:28:18.821Z,101373.45
2017-12-17T03:30:44.609Z,101369.70
2017-12-17T03:33:10.366Z,101368.95
2017-12-17T03:35:36.760Z,101370.96
2017-12-17T03:38:02.535Z,101375.16
2017-12-17T03:40:28.279Z,101372.41
2017-12-17T03:42:54.084Z,101379.87
2017-12-17T03:45:19.846Z,101388.02
2017-12-17T03:47:45.631Z,101392.06
2017-12-17T03:50:11.384Z,101397.85
2017-12-17T03:52:37.174Z,101407.98
2017-12-17T03:55:02.914Z,101404.19
2017-12-17T03:57:28.689Z,101408.06
2017-12-17T03:59:54.439Z,101411.28
2017-12-17T04:02:20.195Z,101421.28
2017-12-17T04:04:45.963Z,101414.56
2017-12-17T04:07:11.736Z,101423.47
2017-12-17T04:09:37.499Z,101435.77
2017-12-17T04:12:03.255Z,101439.16
2017-12-17T04:14:29.010Z,101441.77
2017-12-17T04:16:54.763Z,101439.20
2017-12-17T04:19:20.511Z,101445.88
2017-12-17T04:21:46.303Z,101451.47
2017-12-17T04:24:12.036Z,101437.73
2017-12-17T04:26:37.803Z,101445.64
2017-12-17T04:29:03.563Z,101453.04
2017-12-17T04:31:29.307Z,101449.20
2017-12-17T04:33:55.060Z,101452.46
2017-12-17T04:36:20.807Z,101455.38
2017-12-17T04:38:46.547Z,101454.11
2017-12-17T04:41:12.288Z,101467.09
2017-12-17T04:43:38.057Z,101468.39
2017-12-17T04:46:03.807Z,101478.47
2017-12-17T04:48:29.560Z,101482.06
2017-12-17T04:50:55.298Z,101482.55
2017-12-17T04:53:21.051Z,101484.33
2017-12-17T04:55:46.794Z,101482.99
2017-12-17T04:58:12.564Z,101483.44
2017-12-17T05:00:38.319Z,101492.41
2017-12-17T05:03:04.080Z,101497.66
2017-12-17T05:05:29.814Z,101497.96
2017-12-17T05:07:55.555Z,101505.50
2017-12-17T05:10:21.327Z,101503.76
2017-12-17T05:12:47.073Z,101501.77
2017-12-17T05:15:12.835Z,101504.11
2017-12-17T05:17:38.580Z,101511.27
2017-12-17T05:20:04.321Z,101511.78
2017-12-17T05:22:30.071Z,101512.40
2017-12-17T05:24:55.816Z,101513.12
2017-12-17T05:27:21.559Z,101519.45
2017-12-17T05:29:47.327Z,101515.31
2017-12-17T05:32:13.067Z,101520.70
2017-12-17T05:34:38.827Z,101516.65
2017-12-17T05:37:04.563Z,101515.01
2017-12-17T05:39:30.384Z,101520.15
2017-12-17T05:41:56.153Z,101527.72
2017-12-17T05:44:21.879Z,101541.27
2017-12-17T05:46:47.626Z,101536.91
2017-12-17T05:49:13.360Z,101542.16
2017-12-17T05:51:39.119Z,101548.33
2017-12-17T05:54:04.870Z,101549.45
2017-12-17T05:56:30.632Z,101557.20
2017-12-17T05:58:56.389Z,101552.13
2017-12-17T06:01:22.154Z,101559.02
2017-12-17T06:03:47.903Z,101568.48
2017-12-17T06:06:13.655Z,101566.73
2017-12-17T06:08:39.399Z,101575.88
2017-12-17T06:11:05.143Z,101579.80
2017-12-17T06:13:30.908Z,101589.57
2017-12-17T06:15:56.688Z,101593.34
2017-12-17T06:18:22.428Z,101587.79
2017-12-17T06:20:48.162Z,101601.38
2017-12-17T06:23:13.907Z,101605.17
2017-12-17T06:25:39.667Z,101614.33
2017-12-17T06:28:05.431Z,101611.08
2017-12-17T06:30:31.192Z,101607.63
2017-12-17T06:32:56.951Z,101620.25
2017-12-17T06:35:22.704Z,101613.84
2017-12-17T06:37:48.460Z,101621.03
2017-12-17T06:40:14.213Z,101618.50
2017-12-17T06:42:39.964Z,101626.53
2017-12-17T06:45:05.700Z,101629.21
2017-12-17T06:47:31.452Z,101630.41
2017-12-17T06:49:57.191Z,101628.62
2017-12-17T06:52:22.932Z,101641.13
2017-12-17T06:54:48.689Z,101641.84
2017-12-17T06:57:14.475Z,101654.49
2017-12-17T06:59:40.216Z,101656.53
2017-12-17T07:02:05.971Z,101660.37
2017-12-17T07:04:31.722Z,101662.41
2017-12-17T07:06:57.471Z,101676.70
2017-12-17T07:09:23.231Z,101682.77
2017-12-17T07:11:48.969Z,101681.71
2017-12-17T07:14:14.716Z,101682.00
2017-12-17T07:16:40.466Z,101682.38
2017-12-17T07:19:06.218Z,101694.00
2017-12-17T07:21:31.987Z,101696.86
2017-12-17T07:23:57.731Z,101702.95
2017-12-17T07:26:23.495Z,101707.31
2017-12-17T07:28:49.252Z,101708.61
2017-12-17T07:31:14.999Z,101710.45
2017-12-17T07:33:40.743Z,101713.58
2017-12-17T07:36:06.534Z,101716.10
2017-12-17T07:38:32.296Z,101716.38
2017-12-17T07:40:58.058Z,101725.20
2017-12-17T07:43:23.817Z,101725.16
2017-12-17T07:45:49.579Z,101733.16
2017-12-17T07:48:15.319Z,101738.94
2017-12-17T07:50:41.068Z,101730.42
2017-12-17T07:53:06.839Z,101732.98
2017-12-17T07:55:32.586Z,101744.20
2017-12-17T07:57:58.368Z,101735.59
2017-12-17T08:00:24.167Z,101736.56
2017-12-17T08:02:49.932Z,101735.37
2017-12-17T08:05:15.675Z,101733.84
2017-12-17T08:07:41.438Z,101739.72
2017-12-17T08:10:07.179Z,101750.00
2017-12-17T08:12:32.936Z,101760.36
2017-12-17T08:14:58.686Z,101748.87
2017-12-17T08:17:24.462Z,101783.11
2017-12-17T08:19:50.203Z,101775.75
2017-12-17T08:22:15.964Z,101793.16
2017-12-17T08:24:41.743Z,101793.61
2017-12-17T08:27:07.499Z,101798.91
2017-12-17T08:29:33.251Z,101803.70
2017-12-17T08:31:59.024Z,101802.31
2017-12-17T08:34:24.774Z,101811.02
2017-12-17T08:36:50.519Z,101807.38
2017-12-17T08:39:16.287Z,101810.08
2017-12-17T08:41:42.032Z,101821.73
2017-12-17T08:44:07.795Z,101815.05
2017-12-17T08:46:33.542Z,101815.09
2017-12-17T08:48:59.308Z,101824.74
2017-12-17T08:51:25.050Z,101829.95
2017-12-17T08:53:50.799Z,101829.28
2017-12-17T08:56:16.546Z,101839.16
2017-12-17T08:58:42.311Z,101827.53
2017-12-17T09:01:08.051Z,101834.27
2017-12-17T09:03:33.823Z,101834.77
2017-12-17T09:05:59.570Z,101830.14
2017-12-17T09:08:25.336Z,101835.39
2017-12-17T09:10:51.087Z,101834.67
2017-12-17T09:13:16.853Z,101837.00
2017-12-17T09:15:42.611Z,101845.12
2017-12-17T09:18:08.372Z,101849.44
2017-12-17T09:20:34.127Z,101856.00
2017-12-17T09:22:59.887Z,101861.52
2017-12-17T09:25:25.658Z,101862.27
2017-12-17T09:27:51.402Z,101867.62
2017-12-17T09:30:17.171Z,101876.23
2017-12-17T09:32:42.924Z,101880.55
2017-12-17T09:35:08.690Z,101887.59
2017-12-17T09:37:34.432Z,101885.00
2017-12-17T09:40:00.176Z,101890.47
2017-12-17T09:42:25.921Z,101889.30
2017-12-17T09:44:51.688Z,101896.13
2017-12-17T09:47:17.439Z,101878.16
2017-12-17T09:49:43.269Z,101899.42
2017-12-17T09:52:09.024Z,101901.71
2017-12-17T09:54:34.782Z,101898.48
2017-12-17T09:57:00.530Z,101904.15
2017-12-17T09:59:26.293Z,101904.89
2017-12-17T10:01:52.046Z,101906.12
2017-12-17T10:04:17.795Z,101909.30
2017-12-17T10:06:43.562Z,101905.66
2017-12-17T10:09:09.310Z,101900.22
2017-12-17T10:11:35.082Z,101898.91
2017-12-17T10:14:00.830Z,101905.60
2017-12-17T10:16:26.576Z,101907.67
2017-12-17T10:18:52.330Z,101907.55
2017-12-17T10:21:18.096Z,101908.98
2017-12-17T10:23:43.848Z,101909.52
2017-12-17T10:26:09.610Z,101908.49
2017-12-17T10:28:35.363Z,101904.13
2017-12-17T10:31:01.117Z,101914.52
2017-12-17T10:33:26.880Z,101914.56
2017-12-17T10:35:52.635Z,101918.72
2017-12-17T10:38:18.407Z,101918.97
2017-12-17T10:40:44.160Z,101910.11
2017-12-17T10:43:10.549Z,101910.27
2017-12-17T10:45:36.653Z,101912.00
2017-12-17T10:48:02.424Z,101892.69
2017-12-17T10:50:28.174Z,101904.42
2017-12-17T10:52:53.936Z,101909.91
2017-12-17T10:55:19.710Z,101909.13
2017-12-17T10:57:45.483Z,101911.69
2017-12-17T11:00:11.244Z,101916.98
2017-12-17T11:02:37.008Z,101913.08
2017-12-17T11:05:02.763Z,101917.86
2017-12-17T11:07:28.519Z,101907.91
2017-12-17T11:09:54.635Z,101899.36
2017-12-17T11:12:20.399Z,101904.20
2017-12-17T11:14:46.159Z,101900.18
2017-12-17T11:17:11.932Z,101902.56
2017-12-17T11:19:37.695Z,101902.91
2017-12-17T11:22:03.447Z,101903.52
2017-12-17T11:24:29.219Z,101906.20
2017-12-17T11:26:54.959Z,101907.05
2017-12-17T11:29:20.729Z,101909.38
2017-12-17T11:31:46.480Z,101918.47
2017-12-17T11:34:12.262Z,101907.05
2017-12-17T11:36:38.031Z,101911.15
2017-12-17T11:39:03.791Z,101918.63
2017-12-17T11:41:29.556Z,101915.98
2017-12-17T11:43:55.303Z,101921.40
2017-12-17T11:46:21.060Z,101928.55
2017-12-17T11:48:46.811Z,101920.83
2017-12-17T11:51:12.581Z,101931.55
2017-12-17T11:53:38.328Z,101933.89
2017-12-17T11:56:04.083Z,101930.11
2017-12-17T11:58:29.846Z,101935.06
2017-12-17T12:00:55.670Z,101931.56
2017-12-17T12:03:21.410Z,101937.00
2017-12-17T12:05:47.155Z,101933.29
2017-12-17T12:08:12.924Z,101934.25
2017-12-17T12:10:39.107Z,101934.08
2017-12-17T12:13:04.878Z,101936.16
2017-12-17T12:15:30.615Z,101936.28
2017-12-17T12:17:56.374Z,101933.09
2017-12-17T12:20:22.123Z,101929.77
2017-12-17T12:22:47.900Z,101916.34
2017-12-17T12:25:13.663Z,101928.98
2017-12-17T12:27:39.419Z,101926.61
2017-12-17T12:30:05.155Z,101928.02
2017-12-17T12:32:30.907Z,101926.84
2017-12-17T12:34:56.659Z,101930.35
2017-12-17T12:37:22.418Z,101929.56
2017-12-17T12:39:48.172Z,101921.84
2017-12-17T12:42:13.931Z,101931.02
2017-12-17T12:44:39.670Z,101935.71
2017-12-17T12:47:05.423Z,101928.52
2017-12-17T12:49:31.175Z,101929.61
2017-12-17T12:51:56.925Z,101922.94
2017-12-17T12:54:22.705Z,101920.77
2017-12-17T12:56:48.438Z,101926.34
2017-12-17T12:59:14.187Z,101928.52
2017-12-17T13:01:39.930Z,101937.59
2017-12-17T13:04:05.708Z,101940.78
2017-12-17T13:06:31.471Z,101942.09
2017-12-17T13:08:57.234Z,101945.42
2017-12-17T13:11:23.007Z,101947.90
2017-12-17T13:13:48.774Z,101945.25
2017-12-17T13:16:14.529Z,101940.70
2017-12-17T13:18:40.302Z,101942.44
2017-12-17T13:21:06.055Z,101936.20
2017-12-17T13:23:31.789Z,101934.05
2017-12-17T13:25:57.544Z,101939.25
2017-12-17T13:28:23.287Z,101929.62
2017-12-17T13:30:49.051Z,101930.12
2017-12-17T13:33:14.795Z,101931.70
2017-12-17T13:35:40.543Z,101928.37
2017-12-17T13:38:06.291Z,101929.66
2017-12-17T13:40:32.051Z,101933.23
2017-12-17T13:42:57.793Z,101933.25
2017-12-17T13:45:23.552Z,101932.77
2017-12-17T13:47:49.295Z,101937.56
2017-12-17T13:50:15.037Z,101937.50
2017-12-17T13:52:40.780Z,101943.37
2017-12-17T13:55:06.547Z,101945.56
2017-12-17T13:57:32.301Z,101944.52
2017-12-17T13:59:58.071Z,101949.64
2017-12-17T14:02:23.823Z,101943.19
2017-12-17T14:04:49.559Z,101952.63
2017-12-17T14:07:15.314Z,101953.08
2017-12-17T14:09:41.068Z,101953.53
2017-12-17T14:12:06.823Z,101964.61
2017-12-17T14:14:32.563Z,101971.83
2017-12-17T14:16:58.343Z,101972.89
2017-12-17T14:19:24.087Z,101978.52
2017-12-17T14:21:49.851Z,101981.06
2017-12-17T14:24:15.591Z,101985.47
2017-12-17T14:26:41.339Z,101989.23
2017-12-17T14:29:07.078Z,101991.63
2017-12-17T14:31:32.839Z,101996.78
2017-12-17T14:33:58.589Z,101990.84
2017-12-17T14:36:24.372Z,101992.16
2017-12-17T14:39:02.638Z,101980.33
2017-12-17T14:41:28.403Z,101978.28
2017-12-17T14:43:54.151Z,101976.72
2017-12-17T14:46:19.902Z,101975.55
2017-12-17T14:48:45.655Z,101976.29
2017-12-17T14:51:11.417Z,101983.96
2017-12-17T14:53:37.202Z,101991.34
2017-12-17T14:56:02.952Z,101994.73
2017-12-17T14:58:28.737Z,101992.13
2017-12-17T15:00:54.516Z,101991.96
2017-12-17T15:03:20.282Z,101999.22
2017-12-17T15:05:46.043Z,102002.19
2017-12-17T15:08:11.806Z,102004.64
2017-12-17T15:10:37.568Z,102009.52
2017-12-17T15:13:03.359Z,102006.87
2017-12-17T15:15:29.087Z,102014.48
2017-12-17T15:17:54.848Z,102010.58
2017-12-17T15:20:20.616Z,102008.33
2017-12-17T15:22:46.395Z,102009.67
2017-12-17T15:25:12.163Z,102000.38
2017-12-17T15:27:37.937Z,101996.74
2017-12-17T15:30:03.696Z,102002.08
2017-12-17T15:32:29.455Z,102001.91
2017-12-17T15:34:55.232Z,102000.56
2017-12-17T15:37:20.976Z,101996.33
2017-12-17T15:39:46.730Z,101998.45
2017-12-17T15:42:12.486Z,101995.55
2017-12-17T15:44:38.245Z,101991.58
2017-12-17T15:47:03.999Z,101992.44
2017-12-17T15:49:29.771Z,101992.35
2017-12-17T15:51:55.515Z,101998.64
2017-12-17T15:54:21.307Z,101997.48
2017-12-17T15:56:47.060Z,101998.46
2017-12-17T15:59:12.813Z,101989.97
2017-12-17T16:01:38.592Z,101991.41
2017-12-17T16:04:04.334Z,101990.20
2017-12-17T16:06:30.116Z,101996.43
2017-12-17T16:08:55.871Z,101995.59
2017-12-17T16:11:21.635Z,102004.58
2017-12-17T16:13:47.402Z,102014.59
2017-12-17T16:16:13.175Z,102007.56
2017-12-17T16:18:38.931Z,101999.80
2017-12-17T16:21:04.696Z,101999.58
2017-12-17T16:23:30.443Z,102002.95
2017-12-17T16:25:56.208Z,102000.59
2017-12-17T16:28:21.961Z,102003.67
2017-12-17T16:30:47.743Z,102001.16
2017-12-17T16:33:13.480Z,102005.19
2017-12-17T16:35:39.236Z,101990.20
2017-12-17T16:38:04.984Z,102002.87
2017-12-17T16:40:30.722Z,101991.77
2017-12-17T16:42:56.500Z,101995.27
2017-12-17T16:45:22.256Z,101990.99
2017-12-17T16:47:48.030Z,101993.45
2017-12-17T16:50:13.771Z,101990.70
2017-12-17T16:52:39.517Z,101992.59
2017-12-17T16:55:05.280Z,101993.67
2017-12-17T16:57:31.039Z,101990.33
2017-12-17T16:59:56.791Z,101988.60
2017-12-17T17:02:22.551Z,101997.66
2017-12-17T17:04:48.454Z,102001.28
2017-12-17T17:07:14.203Z,101996.08
2017-12-17T17:09:39.954Z,101993.84
2017-12-17T17:12:05.727Z,101997.62
2017-12-17T17:14:31.467Z,101997.70
2017-12-17T17:16:57.271Z,101995.98
2017-12-17T17:19:23.087Z,101990.08
2017-12-17T17:21:48.835Z,101987.92
2017-12-17T17:24:14.617Z,101985.95
2017-12-17T17:26:40.367Z,101988.36
2017-12-17T17:29:06.131Z,101987.86
2017-12-17T17:31:31.875Z,101990.27
2017-12-17T17:33:57.679Z,101982.72
2017-12-17T17:36:23.424Z,101988.94
2017-12-17T17:38:49.195Z,101985.36
2017-12-17T17:41:14.934Z,101978.85
2017-12-17T17:43:40.732Z,101972.23
2017-12-17T17:46:06.491Z,101980.16
2017-12-17T17:48:32.251Z,101980.91
2017-12-17T17:50:58.014Z,101972.55
2017-12-17T17:53:23.763Z,101971.70
2017-12-17T17:55:49.519Z,101972.67
2017-12-17T17:58:15.290Z,101978.98
2017-12-17T18:00:41.036Z,101974.92
2017-12-17T18:03:06.796Z,101968.77
2017-12-17T18:05:32.563Z,101975.39
2017-12-17T18:07:58.315Z,101969.92
2017-12-17T18:10:24.069Z,101972.79
2017-12-17T18:12:49.828Z,101966.33
2017-12-17T18:15:15.583Z,101964.42
2017-12-17T18:17:41.328Z,101963.33
2017-12-17T18:20:07.095Z,101962.02
2017-12-17T18:22:32.839Z,101958.03
2017-12-17T18:24:58.631Z,101966.08
2017-12-17T18:27:24.377Z,101961.42
2017-12-17T18:29:50.127Z,101960.48
2017-12-17T18:32:15.879Z,101962.08
2017-12-17T18:34:41.638Z,101967.88
2017-12-17T18:37:07.406Z,101967.92
2017-12-17T18:39:33.475Z,101971.19
2017-12-17T18:41:59.236Z,101969.44
2017-12-17T18:44:24.987Z,101967.27
2017-12-17T18:46:50.738Z,101968.67
2017-12-17T18:49:16.536Z,101961.02
2017-12-17T18:51:42.330Z,101957.97
2017-12-17T18:54:08.079Z,101957.12
2017-12-17T18:56:33.843Z,101953.12
2017-12-17T18:58:59.612Z,101952.37
2017-12-17T19:01:25.376Z,101959.47
2017-12-17T19:03:51.175Z,101948.20
2017-12-17T19:06:18.928Z,101950.50
2017-12-17T19:08:46.390Z,101951.92
2017-12-17T19:11:13.472Z,101949.67
2017-12-17T19:13:39.798Z,101954.56
2017-12-17T19:16:06.623Z,101948.81
2017-12-17T19:18:34.184Z,101952.21
2017-12-17T19:21:01.377Z,101932.30
2017-12-17T19:23:28.722Z,101950.27
2017-12-17T19:25:56.279Z,101947.36
2017-12-17T19:28:24.200Z,101958.36
2017-12-17T19:30:51.664Z,101957.12
2017-12-17T19:33:19.366Z,101952.77
2017-12-17T19:35:45.850Z,101950.87
2017-12-17T19:38:11.622Z,101948.86
2017-12-17T19:40:37.375Z,101944.77
2017-12-17T19:43:04.344Z,101950.67
2017-12-17T19:45:30.102Z,101956.97
2017-12-17T19:47:55.897Z,101952.02
2017-12-17T19:50:21.674Z,101947.77
2017-12-17T19:52:47.427Z,101953.16
2017-12-17T19:55:13.201Z,101957.72
2017-12-17T19:57:38.955Z,101958.28
2017-12-17T20:00:04.724Z,101957.58
2017-12-17T20:02:30.471Z,101955.97
2017-12-17T20:04:56.226Z,101960.93
2017-12-17T20:07:21.978Z,101971.67
2017-12-17T20:09:47.738Z,101976.59
2017-12-17T20:12:13.494Z,101968.87
2017-12-17T20:14:39.271Z,101968.09
2017-12-17T20:17:05.024Z,101966.43
2017-12-17T20:19:30.795Z,101961.88
2017-12-17T20:21:56.580Z,101966.58
2017-12-17T20:24:22.337Z,101975.53
2017-12-17T20:26:48.122Z,101968.13
2017-12-17T20:29:13.880Z,101970.84
2017-12-17T20:31:39.644Z,101965.52
2017-12-17T20:34:05.412Z,101961.83
2017-12-17T20:36:31.191Z,101963.07
2017-12-17T20:38:56.932Z,101951.31
2017-12-17T20:41:22.690Z,101970.19
2017-12-17T20:43:48.435Z,101968.22
2017-12-17T20:46:14.179Z,101963.27
2017-12-17T20:48:39.927Z,101959.22
2017-12-17T20:51:05.683Z,101957.97
2017-12-17T20:53:31.439Z,101962.46
2017-12-17T20:55:57.179Z,101961.60
2017-12-17T20:58:22.928Z,101957.44
2017-12-17T21:00:48.670Z,101953.75
2017-12-17T21:03:14.427Z,101960.75
2017-12-17T21:05:40.166Z,101954.34
2017-12-17T21:08:05.923Z,101964.05
2017-12-17T21:10:31.667Z,101956.34
2017-12-17T21:12:57.434Z,101960.19
2017-12-17T21:15:23.191Z,101950.08
2017-12-17T21:17:48.958Z,101944.92
2017-12-17T21:20:14.691Z,101945.91
2017-12-17T21:22:40.430Z,101943.59
2017-12-17T21:25:06.187Z,101941.13
2017-12-17T21:27:31.945Z,101939.55
2017-12-17T21:29:57.696Z,101937.72
2017-12-17T21:32:23.423Z,101928.41
2017-12-17T21:34:49.181Z,101929.64
2017-12-17T21:37:14.945Z,101917.11
2017-12-17T21:39:40.695Z,101932.38
2017-12-17T21:42:06.455Z,101930.00
2017-12-17T21:44:32.210Z,101922.54
2017-12-17T21:46:58.479Z,101920.66
2017-12-17T21:49:24.247Z,101919.58
2017-12-17T21:51:49.987Z,101924.39
2017-12-17T21:54:15.748Z,101923.08
2017-12-17T21:56:41.710Z,101919.72
2017-12-17T21:59:07.523Z,101912.97
2017-12-17T22:01:33.271Z,101915.45
2017-12-17T22:03:59.027Z,101899.91
2017-12-17T22:06:25.516Z,101911.31
2017-12-17T22:08:51.263Z,101913.11
2017-12-17T22:11:17.007Z,101908.75
2017-12-17T22:13:42.769Z,101903.13
2017-12-17T22:16:08.520Z,101901.92
2017-12-17T22:18:34.262Z,101899.19
2017-12-17T22:21:00.006Z,101891.99
2017-12-17T22:23:25.771Z,101890.59
2017-12-17T22:25:51.531Z,101884.00
2017-12-17T22:28:17.279Z,101882.11
2017-12-17T22:30:43.023Z,101879.55
2017-12-17T22:33:08.782Z,101884.35
2017-12-17T22:35:34.562Z,101878.23
2017-12-17T22:38:00.291Z,101875.14
2017-12-17T22:40:26.047Z,101876.17
2017-12-17T22:42:51.791Z,101871.19
2017-12-17T22:45:17.552Z,101872.81
2017-12-17T22:47:43.302Z,101865.89
2017-12-17T22:50:09.046Z,101863.87
2017-12-17T22:52:34.830Z,101852.19
2017-12-17T22:55:00.588Z,101865.62
2017-12-17T22:57:26.708Z,101862.98
2017-12-17T22:59:52.446Z,101857.32
2017-12-17T23:02:18.703Z,101855.57
2017-12-17T23:04:44.688Z,101853.78
2017-12-17T23:07:10.483Z,101851.75
2017-12-17T23:09:36.283Z,101850.97
2017-12-17T23:12:02.075Z,101854.31
2017-12-17T23:14:27.838Z,101840.75
2017-12-17T23:16:53.793Z,101838.27
2017-12-17T23:19:19.551Z,101832.11
2017-12-17T23:21:45.380Z,101843.19
2017-12-17T23:24:11.120Z,101842.09
2017-12-17T23:26:36.891Z,101838.34
2017-12-17T23:29:02.635Z,101842.70
2017-12-17T23:31:28.920Z,101848.03
2017-12-17T23:33:54.737Z,101839.77
2017-12-17T23:36:20.486Z,101841.59
2017-12-17T23:38:47.486Z,101841.44
2017-12-17T23:41:13.407Z,101846.33
2017-12-17T23:43:39.562Z,101846.77
2017-12-17T23:46:05.376Z,101847.02
2017-12-17T23:48:31.136Z,101843.27
2017-12-17T23:50:56.899Z,101842.98
2017-12-17T23:53:22.643Z,101832.68
2017-12-17T23:55:48.387Z,101840.89
2017-12-17T23:58:14.140Z,101844.73
